createdAt,value
2019-05-30T00:05:04.683Z,48.1
2019-05-30T00:20:29.345Z,48.1
2019-05-30T00:35:54.088Z,48.2
2019-05-30T00:41:02.237Z,47.9
2019-05-30T00:56:26.935Z,47.5
2019-05-30T01:16:59.922Z,46.8
2019-05-30T01:22:08.046Z,46.2
2019-05-30T01:42:41.040Z,45.3
2019-05-30T01:47:49.220Z,45.6
2019-05-30T02:03:13.852Z,45.8
2019-05-30T02:08:22.115Z,45.4
2019-05-30T02:18:38.449Z,45.4
2019-05-30T02:23:46.667Z,45.1
2019-05-30T02:44:19.438Z,45.5
2019-05-30T02:49:27.668Z,45.2
2019-05-30T02:54:35.970Z,45.4
2019-05-30T02:59:44.194Z,45.3
2019-05-30T03:04:52.310Z,45.1
2019-05-30T03:10:00.491Z,44.9
2019-05-30T03:25:25.045Z,44.8
2019-05-30T03:30:33.216Z,45.1
2019-05-30T03:40:49.651Z,44.8
2019-05-30T03:51:06.081Z,45.4
2019-05-30T04:01:22.392Z,45.6
2019-05-30T04:32:11.207Z,45.1
2019-05-30T04:42:27.486Z,45.3
2019-05-30T04:47:35.547Z,45.4
2019-05-30T04:52:43.693Z,45.6
2019-05-30T05:02:59.864Z,45.9
2019-05-30T05:08:07.939Z,45.4
2019-05-30T05:13:16.143Z,45.3
2019-05-30T05:23:32.264Z,45.8
2019-05-30T05:28:40.351Z,45.9
2019-05-30T05:33:48.486Z,46.2
2019-05-30T05:44:04.487Z,45.9
2019-05-30T06:04:36.636Z,47.2
2019-05-30T06:09:44.631Z,46.4
2019-05-30T06:25:08.651Z,47.3
2019-05-30T06:30:16.472Z,47.7
2019-05-30T06:35:24.511Z,47.1
2019-05-30T06:40:32.378Z,47.8
2019-05-30T06:45:42.387Z,47.8
2019-05-30T06:55:56.228Z,47.6
2019-05-30T07:11:20.018Z,47.3
2019-05-30T07:31:51.578Z,47.4
2019-05-30T07:47:15.212Z,47.4
2019-05-30T07:52:23.099Z,47.1
2019-05-30T08:18:05.891Z,46.5
2019-05-30T08:48:48.939Z,44.7
2019-05-30T08:53:56.734Z,44.7
2019-05-30T08:59:04.486Z,44.6
2019-05-30T10:00:37.389Z,44.6
2019-05-30T10:41:39.262Z,45.5
2019-05-30T10:51:54.886Z,45.4
2019-05-30T11:12:25.460Z,45.3
2019-05-30T11:22:40.783Z,44.5
2019-05-30T11:38:03.727Z,45
2019-05-30T11:43:11.336Z,44.9
2019-05-30T11:48:18.917Z,44.3
2019-05-30T11:58:34.138Z,44.4
2019-05-30T12:24:12.278Z,44.8
2019-05-30T12:29:25.718Z,44.4
2019-05-30T12:34:33.472Z,45
2019-05-30T13:05:13.686Z,44.3
2019-05-30T13:10:21.715Z,44.5
2019-05-30T13:20:36.338Z,44.4
2019-05-30T13:25:43.893Z,44.6
2019-05-30T13:30:51.558Z,44.5
2019-05-30T13:35:59.234Z,44.4
2019-05-30T13:41:06.856Z,44
2019-05-30T13:46:14.484Z,44.2
2019-05-30T13:56:29.712Z,44
2019-05-30T14:06:44.852Z,44.1
2019-05-30T14:11:52.447Z,43.9
2019-05-30T14:17:00.031Z,44
2019-05-30T14:32:22.893Z,43.9
2019-05-30T14:47:45.575Z,44
2019-05-30T14:58:00.561Z,44.1
2019-05-30T15:23:38.136Z,44.3
2019-05-30T15:28:45.626Z,43.9
2019-05-30T15:39:00.602Z,44.5
2019-05-30T15:44:08.132Z,44.1
2019-05-30T15:49:15.623Z,43.8
2019-05-30T15:59:30.624Z,44.1
2019-05-30T16:04:38.108Z,44.2
2019-05-30T16:14:53.133Z,43.9
2019-05-30T16:30:15.535Z,43.7
2019-05-30T16:45:37.853Z,43.4
2019-05-30T16:50:45.311Z,43.3
2019-05-30T17:01:00.219Z,43.4
2019-05-30T17:06:07.698Z,43.6
2019-05-30T17:11:15.227Z,43.9
2019-05-30T17:26:37.431Z,43.7
2019-05-30T17:31:44.818Z,43.3
2019-05-30T17:36:52.302Z,43.9
2019-05-30T17:41:59.668Z,43.5
2019-05-30T17:47:07.156Z,43.9
2019-05-30T18:07:36.732Z,43.6
2019-05-30T18:22:58.917Z,42.8
2019-05-30T18:28:06.301Z,43.2
2019-05-30T18:33:13.641Z,42.9
2019-05-30T18:48:35.855Z,41.8
2019-05-30T19:03:58.334Z,42.2
2019-05-30T19:09:05.622Z,43.1
2019-05-30T19:14:13.100Z,42.9
2019-05-30T19:24:28.108Z,43.3
2019-05-30T19:50:05.930Z,43.1
2019-05-30T19:55:13.444Z,43.5
2019-05-30T20:05:28.669Z,43.1
2019-05-30T20:15:43.828Z,44
2019-05-30T20:25:59.054Z,44.4
2019-05-30T20:31:06.721Z,44.4
2019-05-30T20:36:14.307Z,44.4
2019-05-30T20:46:29.720Z,44.5
2019-05-30T20:56:45.117Z,44.8
2019-05-30T21:07:00.520Z,45
2019-05-30T21:12:08.258Z,45.1
2019-05-30T21:22:23.830Z,45.2
2019-05-30T21:27:32.579Z,45.5
2019-05-30T21:32:39.163Z,45.5
2019-05-30T21:53:10.251Z,46.1
2019-05-30T21:58:17.992Z,46.5
2019-05-30T22:08:33.606Z,46.6
2019-05-30T22:13:41.382Z,46.8
2019-05-30T22:18:49.172Z,46.4
2019-05-30T22:29:04.772Z,47
2019-05-30T22:34:12.600Z,46.5
2019-05-30T22:39:20.395Z,47
2019-05-30T22:49:36.107Z,46.8
2019-05-30T22:54:43.803Z,47.3
2019-05-30T23:10:07.280Z,46.9
2019-05-30T23:15:15.173Z,47.6
2019-05-30T23:30:38.518Z,47.6
2019-05-30T23:35:46.319Z,47.6
2019-05-30T23:40:54.153Z,47.4
2019-05-30T23:51:09.883Z,47.9
